Strona główna
METAR-TAF:

METAR-TAF

Lotnisko :

Port lotniczy Nioro du Sahel

Nioro du Sahel, Mali

Szerokość geograficzna: 15-14N, Długość geograficzna: 009-21W, wysokość: 235 m

Aktualna obserwacja pogody

Raport powstał 3 godziny i 25 minut temu, godzina 15:00 UTC
Wiatr 8 kt od zachodnio-północny zachód
Temperatura 35°C
Wilgotność 53%
Ciśnienie 1008 hPa
Widzialność 10 km lub więcej
Brak chmur poniżej 1500 m i brak chmur cumulonimbus

METAR: GANR 201500Z 30008KT CAVOK 35/24 Q1008

czas: 18:25 (18:25 UTC)


TAF: brakujący

Obserwacja i prognoza pogody dla ponad 4000 lotnisk (raport METAR i TAF).

Dostępne stacje oznaczono żółtymi i czerwonymi punktami na mapie.

Najedź kursorem aby zobaczyć nazwę stacji.

Kliknij aby zobaczyć obserwacje i prognozy pogody.

Aby zmienić mapę: kliknij na zielony przycisk z czarnym krzyżykiem, aby powiększyć; na zielony przycisk z myślnikiem, aby pomniejszyć; na zielone strzałki, aby przejść do map sąsiednich.


METAR-TAF: